Time;durP1;ratioP1;P1;durP2;ratioP2;P2;SDS_P1;SDS_P2;PMS_P1;PMS_P2;Temp;Humidity;BMP_temperature;BMP_pressure;BME280_temperature;BME280_humidity;BME280_pressure;Samples;Min_cycle;Max_cycle;Signal;HPM_P1;HPM_P2
2022/09/05 00:02:02;;;;;;;4.50;2.47;;;;;;;18.84;55.90;102374.19;5006692;28;20557;-70
2022/09/05 00:04:46;;;;;;;3.17;2.30;;;;;;;18.80;55.69;102372.44;4989231;28;20187;-71
2022/09/05 00:07:17;;;;;;;5.40;2.53;;;;;;;18.78;55.44;102370.66;4996446;28;20576;-70
2022/09/05 00:10:04;;;;;;;4.27;2.67;;;;;;;18.76;55.81;102370.69;5003856;28;20666;-70
2022/09/05 00:12:32;;;;;;;4.03;2.63;;;;;;;18.70;56.41;102367.16;4991227;28;20256;-71
2022/09/05 00:15:15;;;;;;;7.50;3.10;;;;;;;18.68;55.92;102369.72;5007816;28;20584;-71
2022/09/05 00:17:56;;;;;;;3.00;2.37;;;;;;;18.62;56.60;102367.06;5009527;28;20206;-71
2022/09/05 00:20:26;;;;;;;2.83;2.53;;;;;;;18.58;56.40;102365.28;5012871;28;20195;-70
2022/09/05 00:23:05;;;;;;;3.90;2.70;;;;;;;18.55;56.69;102361.75;5011601;28;20213;-71
2022/09/05 00:25:34;;;;;;;3.10;2.80;;;;;;;18.50;57.00;102364.31;4995437;28;20297;-70
2022/09/05 00:27:59;;;;;;;4.60;2.70;;;;;;;18.47;57.28;102366.03;5012337;28;20199;-70
2022/09/05 00:30:34;;;;;;;5.90;2.83;;;;;;;18.41;57.08;102368.50;5012562;28;20306;-71
2022/09/05 00:33:25;;;;;;;3.93;2.87;;;;;;;18.39;57.26;102359.84;5011755;28;20269;-70
2022/09/05 00:36:31;;;;;;;3.37;2.70;;;;;;;18.34;57.34;102364.97;5010858;28;20218;-71
2022/09/05 00:39:03;;;;;;;2.77;2.53;;;;;;;18.33;57.22;102365.84;4994278;28;20698;-70
2022/09/05 00:41:31;;;;;;;4.00;2.50;;;;;;;18.28;57.58;102371.81;5011910;28;20575;-71
2022/09/05 00:43:58;;;;;;;5.13;3.10;;;;;;;18.23;57.76;102366.53;5008198;28;20550;-70
2022/09/05 00:46:28;;;;;;;5.57;3.07;;;;;;;18.25;57.52;102369.16;5011517;28;20195;-71
2022/09/05 00:49:15;;;;;;;4.53;2.83;;;;;;;18.23;57.72;102357.91;5010906;28;20195;-71
2022/09/05 00:52:03;;;;;;;4.73;3.30;;;;;;;18.16;57.81;102364.75;4992295;28;20235;-70
2022/09/05 00:54:50;;;;;;;4.53;2.80;;;;;;;18.15;57.69;102372.50;5011529;28;20191;-71
2022/09/05 00:57:45;;;;;;;3.67;2.70;;;;;;;18.08;58.36;102373.25;4992098;28;20623;-70
2022/09/05 01:00:12;;;;;;;4.30;3.00;;;;;;;18.09;57.80;102378.47;5008797;28;20207;-71
2022/09/05 01:02:52;;;;;;;4.33;3.00;;;;;;;18.06;58.14;102387.94;5012339;28;20286;-70
2022/09/05 01:05:39;;;;;;;5.47;3.20;;;;;;;18.06;58.42;102378.41;5012096;28;20637;-71
2022/09/05 01:08:42;;;;;;;4.17;3.00;;;;;;;18.03;58.12;102385.28;5010579;28;20673;-70
2022/09/05 01:11:32;;;;;;;4.80;2.90;;;;;;;18.04;58.20;102392.19;4994203;28;20356;-71
2022/09/05 01:14:36;;;;;;;4.23;3.23;;;;;;;17.97;58.50;102392.97;5011967;28;20244;-72
2022/09/05 01:17:46;;;;;;;4.90;3.30;;;;;;;17.98;58.24;102393.00;4994301;28;20201;-71
2022/09/05 01:20:28;;;;;;;5.23;3.20;;;;;;;17.99;58.53;102389.56;5009836;28;20705;-72
2022/09/05 01:23:06;;;;;;;4.77;2.77;;;;;;;17.97;58.69;102383.47;4993935;28;20215;-71
2022/09/05 01:25:56;;;;;;;5.13;3.10;;;;;;;17.96;58.71;102383.47;5010933;28;20195;-71
2022/09/05 01:28:40;;;;;;;4.77;3.00;;;;;;;17.96;58.85;102383.47;5011062;28;20289;-71
2022/09/05 01:31:29;;;;;;;3.60;2.87;;;;;;;17.97;58.49;102382.63;5009935;28;20206;-70
2022/09/05 01:34:25;;;;;;;5.10;3.13;;;;;;;17.93;58.93;102380.81;5011341;28;20179;-70
2022/09/05 01:36:53;;;;;;;5.23;3.17;;;;;;;17.94;58.84;102382.56;5010289;28;20202;-71
2022/09/05 01:39:34;;;;;;;5.07;3.13;;;;;;;17.92;58.96;102385.13;5010789;28;20215;-70
2022/09/05 01:42:07;;;;;;;4.13;2.57;;;;;;;17.92;58.89;102382.53;5010882;28;20221;-70
2022/09/05 01:44:40;;;;;;;4.33;3.13;;;;;;;17.89;58.91;102382.50;5011024;28;20183;-70
2022/09/05 01:47:39;;;;;;;4.77;3.20;;;;;;;17.92;58.68;102376.50;4994139;28;20199;-71
2022/09/05 01:50:11;;;;;;;4.47;2.97;;;;;;;17.94;58.49;102377.38;5004105;28;20188;-70
2022/09/05 01:53:24;;;;;;;3.80;3.20;;;;;;;17.93;58.40;102373.94;5010455;28;20293;-70
2022/09/05 01:55:58;;;;;;;5.80;3.30;;;;;;;17.91;58.42;102369.56;4994049;28;20222;-71
2022/09/05 01:59:02;;;;;;;5.83;3.40;;;;;;;17.95;58.31;102372.22;5005461;28;20192;-70
2022/09/05 02:01:36;;;;;;;4.07;3.27;;;;;;;17.94;58.55;102364.41;5009911;28;20221;-71
2022/09/05 02:04:26;;;;;;;9.53;3.40;;;;;;;17.92;58.30;102373.91;5006884;28;20528;-71
2022/09/05 02:06:54;;;;;;;6.00;3.60;;;;;;;17.93;58.34;102366.16;5009042;28;20183;-71
2022/09/05 02:10:10;;;;;;;4.70;3.60;;;;;;;17.92;58.44;102358.34;4991239;28;20194;-70
2022/09/05 02:12:46;;;;;;;5.13;3.00;;;;;;;17.91;58.21;102364.41;4962215;28;20314;-69
2022/09/05 02:15:20;;;;;;;3.60;3.10;;;;;;;17.93;57.99;102362.69;4976772;28;20245;-70
2022/09/05 02:18:00;;;;;;;4.00;3.40;;;;;;;17.91;58.22;102360.06;5011369;28;20728;-70
2022/09/05 02:20:32;;;;;;;5.63;3.50;;;;;;;17.90;58.31;102365.22;5009177;28;20482;-70
2022/09/05 02:23:04;;;;;;;5.40;3.20;;;;;;;17.90;58.08;102360.03;5009940;28;20318;-71
2022/09/05 02:25:55;;;;;;;4.57;3.53;;;;;;;17.88;58.14;102359.16;5005646;28;20723;-70
2022/09/05 02:28:31;;;;;;;6.37;3.23;;;;;;;17.89;58.09;102363.47;5008017;28;20202;-70
2022/09/05 02:31:04;;;;;;;5.70;3.70;;;;;;;17.87;58.03;102358.28;4989292;28;20187;-75
2022/09/05 02:33:44;;;;;;;4.50;3.20;;;;;;;17.87;58.28;102366.03;5010877;28;20187;-72
2022/09/05 02:36:32;;;;;;;8.03;3.53;;;;;;;17.86;58.30;102366.03;5005174;28;20207;-72
2022/09/05 02:39:35;;;;;;;5.03;3.17;;;;;;;17.84;58.20;102363.44;5006690;28;20199;-71
2022/09/05 02:42:18;;;;;;;4.33;3.20;;;;;;;17.85;57.87;102364.28;4979755;28;20288;-71
2022/09/05 02:45:05;;;;;;;4.40;2.97;;;;;;;17.82;58.12;102361.66;5001360;28;20653;-71
2022/09/05 02:47:50;;;;;;;3.47;3.17;;;;;;;17.80;57.88;102359.06;5006573;28;20198;-71
2022/09/05 02:50:41;;;;;;;4.27;3.60;;;;;;;17.85;57.60;102369.47;5007177;28;20186;-70
2022/09/05 02:53:10;;;;;;;4.03;3.17;;;;;;;17.78;58.30;102360.72;4992924;28;20229;-70
2022/09/05 02:56:05;;;;;;;4.70;3.47;;;;;;;17.78;57.74;102362.47;5007625;28;20221;-70
2022/09/05 02:58:50;;;;;;;4.13;3.37;;;;;;;17.78;57.94;102357.28;5004326;28;20229;-70
2022/09/05 03:01:40;;;;;;;4.83;3.43;;;;;;;17.76;57.82;102354.66;4989479;28;20211;-70
2022/09/05 03:04:22;;;;;;;4.60;3.30;;;;;;;17.72;58.05;102350.28;4975694;28;20204;-71
2022/09/05 03:07:28;;;;;;;4.87;3.50;;;;;;;17.71;57.94;102348.56;4990675;28;20552;-70
2022/09/05 03:10:02;;;;;;;5.63;3.73;;;;;;;17.71;57.90;102348.56;4998222;28;20238;-71
2022/09/05 03:12:40;;;;;;;4.33;3.77;;;;;;;17.70;58.08;102349.41;5007216;28;20233;-70
2022/09/05 03:15:42;;;;;;;3.57;3.17;;;;;;;17.66;58.32;102354.50;5006630;28;20215;-70
2022/09/05 03:18:41;;;;;;;4.03;3.50;;;;;;;17.61;58.70;102345.78;5008918;28;20186;-70
2022/09/05 03:21:07;;;;;;;5.03;3.77;;;;;;;17.63;58.52;102346.66;5007176;28;20210;-71
2022/09/05 03:24:02;;;;;;;4.87;3.80;;;;;;;17.59;58.57;102340.59;5007523;28;20676;-70
2022/09/05 03:26:46;;;;;;;7.10;3.97;;;;;;;17.58;58.72;102348.31;5007665;28;20187;-70
2022/09/05 03:29:35;;;;;;;4.67;3.30;;;;;;;17.61;58.55;102345.78;5007487;28;20205;-71
2022/09/05 03:32:28;;;;;;;4.50;3.83;;;;;;;17.59;58.61;102345.75;5007712;28;20207;-70
2022/09/05 03:35:19;;;;;;;7.50;4.13;;;;;;;17.61;58.40;102343.19;5008895;28;20214;-69
2022/09/05 03:37:53;;;;;;;6.50;4.03;;;;;;;17.59;58.91;102356.13;4988293;28;20191;-71
2022/09/05 03:40:28;;;;;;;4.47;3.77;;;;;;;17.57;58.34;102342.28;4992114;28;20240;-70
2022/09/05 03:43:24;;;;;;;4.43;4.00;;;;;;;17.59;58.62;102350.94;5007406;28;20229;-70
2022/09/05 03:46:10;;;;;;;6.13;4.17;;;;;;;17.60;58.30;102350.09;4988271;28;20538;-70
2022/09/05 03:49:03;;;;;;;4.60;3.47;;;;;;;17.58;58.55;102356.09;5008404;28;20191;-72
2022/09/05 03:51:35;;;;;;;4.47;3.63;;;;;;;17.55;58.81;102343.97;4990481;28;20589;-69
2022/09/05 03:54:28;;;;;;;6.87;3.83;;;;;;;17.53;58.64;102348.28;5009501;28;20206;-70
2022/09/05 03:57:21;;;;;;;8.00;4.10;;;;;;;17.53;58.62;102353.47;5008275;28;20215;-70
2022/09/05 03:59:52;;;;;;;4.97;3.97;;;;;;;17.51;58.40;102352.56;5005180;28;20282;-73
2022/09/05 04:02:22;;;;;;;6.03;3.90;;;;;;;17.49;58.72;102359.44;5009226;28;20609;-72
2022/09/05 04:05:00;;;;;;;5.20;3.60;;;;;;;17.46;59.06;102358.53;5006817;28;20597;-71
2022/09/05 04:07:45;;;;;;;5.67;4.37;;;;;;;17.46;58.73;102364.56;5006630;28;20195;-71
2022/09/05 04:10:25;;;;;;;6.63;4.10;;;;;;;17.48;58.64;102362.00;5008087;28;20187;-76
2022/09/05 04:12:57;;;;;;;6.80;3.97;;;;;;;17.49;58.92;102366.31;5007149;28;20297;-73
2022/09/05 04:15:29;;;;;;;5.37;4.17;;;;;;;17.39;59.42;102362.72;4996020;28;20215;-72
2022/09/05 04:17:59;;;;;;;5.77;3.63;;;;;;;17.39;58.94;102378.28;5009034;28;20183;-73
2022/09/05 04:20:38;;;;;;;5.40;4.07;;;;;;;17.37;59.15;102373.88;5008801;28;20695;-71
2022/09/05 04:23:13;;;;;;;6.23;4.10;;;;;;;17.35;59.20;102379.03;4990791;28;20245;-73
2022/09/05 04:25:50;;;;;;;5.90;3.90;;;;;;;17.32;59.42;102378.97;5008070;28;20594;-73
2022/09/05 04:28:37;;;;;;;8.10;3.80;;;;;;;17.29;59.66;102388.41;4995254;28;20203;-72
2022/09/05 04:31:10;;;;;;;4.60;4.10;;;;;;;17.30;59.51;102380.66;5008891;28;20210;-73
2022/09/05 04:33:46;;;;;;;4.73;3.67;;;;;;;17.28;59.43;102377.19;5005989;28;20200;-73
2022/09/05 04:36:25;;;;;;;6.17;4.00;;;;;;;17.26;59.73;102378.00;5006040;28;20214;-72
2022/09/05 04:39:19;;;;;;;6.63;3.90;;;;;;;17.25;59.89;102376.25;5009320;28;20572;-72
2022/09/05 04:41:58;;;;;;;6.27;3.90;;;;;;;17.20;60.09;102380.47;5006428;28;20203;-71
2022/09/05 04:44:49;;;;;;;6.33;4.20;;;;;;;17.16;60.12;102379.56;5007618;28;20233;-73
2022/09/05 04:47:25;;;;;;;6.40;4.60;;;;;;;17.16;60.08;102384.75;5009056;28;20195;-72
2022/09/05 04:50:05;;;;;;;6.33;4.20;;;;;;;17.15;60.47;102382.13;5007223;28;20447;-72
2022/09/05 04:52:53;;;;;;;4.87;3.77;;;;;;;17.13;60.08;102383.84;4990020;28;20247;-72
2022/09/05 04:55:24;;;;;;;4.23;3.60;;;;;;;17.10;60.44;102386.34;5008851;28;20582;-73
2022/09/05 04:57:56;;;;;;;4.33;3.93;;;;;;;17.08;60.47;102388.91;5009330;28;20684;-71
2022/09/05 05:00:52;;;;;;;5.23;4.00;;;;;;;17.14;60.23;102394.19;5008705;28;20187;-70
2022/09/05 05:03:30;;;;;;;5.37;3.80;;;;;;;17.09;60.82;102389.78;5005710;28;20680;-71
2022/09/05 05:05:59;;;;;;;4.80;4.20;;;;;;;17.11;60.37;102398.44;5012553;28;20222;-71
2022/09/05 05:08:46;;;;;;;6.03;4.00;;;;;;;17.08;60.59;102404.44;5011415;28;20187;-72
2022/09/05 05:11:42;;;;;;;6.27;4.30;;;;;;;17.11;60.69;102401.91;5012268;28;20211;-70
2022/09/05 05:14:24;;;;;;;4.80;3.90;;;;;;;17.13;60.73;102401.97;4965386;28;20691;-70
2022/09/05 05:17:08;;;;;;;4.67;3.93;;;;;;;17.16;60.77;102407.16;5010672;28;20210;-71
2022/09/05 05:19:42;;;;;;;5.87;3.80;;;;;;;17.18;60.26;102403.75;5011299;28;20183;-71
2022/09/05 05:22:14;;;;;;;4.87;4.00;;;;;;;17.23;60.66;102409.88;5010973;28;20226;-70
2022/09/05 05:24:54;;;;;;;7.53;4.00;;;;;;;17.24;60.57;102408.19;5012027;28;20191;-71
2022/09/05 05:27:27;;;;;;;6.40;3.90;;;;;;;17.28;60.62;102409.97;4992523;28;20656;-70
2022/09/05 05:29:56;;;;;;;5.17;3.80;;;;;;;17.36;60.29;102406.66;5010489;28;20190;-71
2022/09/05 05:32:40;;;;;;;5.67;4.03;;;;;;;17.40;60.88;102415.41;4993202;28;20210;-71
2022/09/05 05:35:17;;;;;;;4.70;3.77;;;;;;;17.47;60.32;102412.06;5008847;28;20217;-70
2022/09/05 05:37:42;;;;;;;5.80;3.87;;;;;;;17.60;59.87;102417.47;5011268;28;20195;-71
2022/09/05 05:40:14;;;;;;;3.93;3.53;;;;;;;17.71;59.34;102408.16;4975338;28;20199;-70
2022/09/05 05:42:40;;;;;;;4.80;4.20;;;;;;;17.85;59.55;102414.41;4993766;28;20219;-70
2022/09/05 05:45:15;;;;;;;5.10;3.90;;;;;;;17.94;58.38;102411.06;5008879;28;20191;-70
2022/09/05 05:47:43;;;;;;;5.53;4.00;;;;;;;18.08;58.49;102410.44;5011556;28;20276;-71
2022/09/05 05:50:20;;;;;;;5.20;4.00;;;;;;;18.16;58.64;102410.53;5009577;28;20202;-71
2022/09/05 05:53:06;;;;;;;6.30;4.27;;;;;;;18.17;58.25;102417.47;5008181;28;20227;-71
2022/09/05 05:56:01;;;;;;;5.77;4.13;;;;;;;18.11;57.70;102409.59;5008267;28;20214;-71
2022/09/05 05:59:06;;;;;;;5.20;3.83;;;;;;;18.06;58.21;102414.72;5003987;28;20203;-71
2022/09/05 06:01:57;;;;;;;5.77;3.80;;;;;;;18.13;58.65;102426.03;5005539;28;20226;-70
2022/09/05 06:05:00;;;;;;;6.40;3.60;;;;;;;18.16;58.71;102424.38;5009749;28;20187;-71
2022/09/05 06:07:49;;;;;;;5.00;4.27;;;;;;;18.09;58.45;102429.44;5003575;28;20277;-71
2022/09/05 06:10:23;;;;;;;7.90;4.43;;;;;;;18.14;58.26;102425.22;5005013;28;20278;-71
2022/09/05 06:13:01;;;;;;;6.67;4.00;;;;;;;18.21;58.50;102421.84;5006707;28;20570;-71
2022/09/05 06:15:35;;;;;;;4.50;3.93;;;;;;;18.31;58.19;102426.28;5006886;28;20249;-71
2022/09/05 06:18:24;;;;;;;6.63;3.77;;;;;;;18.33;58.26;102435.88;5006651;28;20676;-71
2022/09/05 06:21:31;;;;;;;5.47;4.23;;;;;;;18.44;57.54;102443.81;4986837;28;20199;-71
2022/09/05 06:24:30;;;;;;;9.27;4.30;;;;;;;18.53;57.55;102433.53;4972268;28;20241;-71
2022/09/05 06:27:10;;;;;;;4.67;3.70;;;;;;;18.71;57.07;102436.38;5005912;28;20206;-72
2022/09/05 06:29:44;;;;;;;6.13;4.17;;;;;;;18.69;57.15;102443.25;4991736;28;20214;-71
2022/09/05 06:32:41;;;;;;;6.53;4.07;;;;;;;18.86;56.93;102441.72;4987542;28;20298;-71
2022/09/05 06:35:15;;;;;;;8.40;4.10;;;;;;;18.79;56.81;102447.72;5003006;28;20775;-72
2022/09/05 06:38:09;;;;;;;9.13;3.70;;;;;;;18.83;57.17;102452.94;5005885;28;20203;-73
2022/09/05 06:41:18;;;;;;;8.33;4.43;;;;;;;18.81;57.25;102451.19;4987583;28;20226;-74
2022/09/05 06:44:15;;;;;;;8.57;4.07;;;;;;;18.73;57.42;102455.41;4978458;28;20230;-72
2022/09/05 06:46:46;;;;;;;5.97;4.20;;;;;;;18.83;57.09;102457.28;5004458;28;20687;-73
2022/09/05 06:49:18;;;;;;;5.90;4.30;;;;;;;18.97;57.30;102450.53;5007438;28;20187;-73
2022/09/05 06:51:53;;;;;;;5.10;3.83;;;;;;;18.95;57.13;102454.81;5005036;28;20666;-74
2022/09/05 06:54:25;;;;;;;4.40;3.77;;;;;;;19.00;56.86;102446.22;5007242;28;20675;-74
2022/09/05 06:57:19;;;;;;;6.07;3.93;;;;;;;19.06;57.03;102437.59;5003934;28;20224;-73
2022/09/05 07:00:10;;;;;;;4.57;3.97;;;;;;;19.41;56.33;102450.16;4987299;28;20191;-74
2022/09/05 07:03:02;;;;;;;6.83;4.03;;;;;;;19.43;56.52;102447.56;5009562;28;20257;-74
2022/09/05 07:05:49;;;;;;;5.80;4.17;;;;;;;19.26;56.69;102452.56;4976622;28;20572;-74
2022/09/05 07:08:46;;;;;;;5.53;3.80;;;;;;;19.22;56.73;102456.03;4996742;28;20195;-73
2022/09/05 07:11:35;;;;;;;6.20;4.00;;;;;;;19.16;56.37;102461.09;4989801;28;20221;-74
2022/09/05 07:14:04;;;;;;;6.33;4.20;;;;;;;19.00;57.35;102458.31;5006808;28;20262;-73
2022/09/05 07:16:46;;;;;;;5.97;4.10;;;;;;;18.99;57.32;102464.38;4996857;28;20231;-73
2022/09/05 07:19:24;;;;;;;5.00;4.10;;;;;;;19.01;57.48;102465.25;5001721;28;20684;-74
2022/09/05 07:22:12;;;;;;;5.07;4.57;;;;;;;18.87;58.02;102472.91;5001906;28;20651;-74
2022/09/05 07:24:50;;;;;;;6.07;4.10;;;;;;;18.95;57.95;102468.69;5002152;28;20661;-75
2022/09/05 07:27:24;;;;;;;6.47;4.03;;;;;;;19.10;57.96;102478.34;4972712;28;20752;-74
2022/09/05 07:29:56;;;;;;;7.27;4.23;;;;;;;18.97;58.26;102474.75;5009287;28;20191;-74
2022/09/05 07:32:23;;;;;;;7.87;4.13;;;;;;;19.02;58.21;102475.66;4989794;28;20239;-74
2022/09/05 07:34:50;;;;;;;5.10;4.10;;;;;;;19.12;58.02;102464.50;4994363;28;20724;-76
2022/09/05 07:37:24;;;;;;;4.87;3.43;;;;;;;19.24;57.75;102469.00;4993545;28;20230;-74
2022/09/05 07:39:57;;;;;;;6.07;4.20;;;;;;;19.35;57.80;102473.44;4996292;28;20232;-73
2022/09/05 07:42:35;;;;;;;6.80;4.23;;;;;;;19.59;57.29;102473.69;5009074;28;20242;-74
2022/09/05 07:45:14;;;;;;;5.70;3.67;;;;;;;19.84;56.60;102477.34;5008348;28;20556;-75
2022/09/05 07:47:48;;;;;;;4.40;3.97;;;;;;;20.16;55.71;102468.97;5009072;28;20274;-74
2022/09/05 07:50:15;;;;;;;5.50;3.73;;;;;;;20.67;54.77;102468.34;5011945;28;20262;-75
2022/09/05 07:52:43;;;;;;;8.77;3.53;;;;;;;21.10;53.54;102471.13;4991074;28;20223;-74
2022/09/05 07:55:33;;;;;;;6.47;4.03;;;;;;;21.45;53.42;102468.59;4988256;28;20704;-74
2022/09/05 07:58:02;;;;;;;5.80;3.67;;;;;;;21.40;53.00;102467.72;5008314;28;20202;-75
2022/09/05 08:00:29;;;;;;;5.13;3.50;;;;;;;21.39;53.29;102464.25;5008853;28;20240;-74
2022/09/05 08:03:06;;;;;;;5.20;3.60;;;;;;;21.30;52.89;102460.75;5007061;28;20325;-74
2022/09/05 08:05:56;;;;;;;9.20;3.70;;;;;;;21.70;52.23;102463.41;5006548;28;20183;-77
2022/09/05 08:08:29;;;;;;;4.23;3.60;;;;;;;21.93;51.93;102456.44;4990298;28;20206;-75
2022/09/05 08:11:02;;;;;;;5.03;3.70;;;;;;;21.77;51.43;102464.28;4991535;28;20549;-74
2022/09/05 08:13:47;;;;;;;4.07;3.37;;;;;;;22.06;51.09;102463.41;5008989;28;20182;-76
2022/09/05 08:16:17;;;;;;;5.53;3.97;;;;;;;22.47;50.53;102460.69;4989750;28;20225;-74
2022/09/05 08:18:55;;;;;;;8.67;4.40;;;;;;;22.51;50.02;102462.44;5004898;28;20789;-78
2022/09/05 08:21:40;;;;;;;5.07;3.90;;;;;;;22.63;50.49;102451.94;4988002;28;20257;-77
2022/09/05 08:24:23;;;;;;;6.73;3.90;;;;;;;23.03;49.55;102450.88;5005480;28;20191;-73
2022/09/05 08:26:54;;;;;;;8.37;4.43;;;;;;;23.00;49.64;102447.41;4988415;28;20240;-75
2022/09/05 08:29:38;;;;;;;7.40;4.17;;;;;;;23.06;48.92;102442.16;5006432;28;20187;-73
2022/09/05 08:32:07;;;;;;;6.27;4.20;;;;;;;23.03;48.83;102440.44;5005469;28;20233;-76
2022/09/05 08:34:48;;;;;;;7.90;4.17;;;;;;;23.03;49.16;102445.66;4983265;28;20227;-75
2022/09/05 08:37:20;;;;;;;5.37;3.70;;;;;;;23.13;49.88;102438.59;5008167;28;20218;-73
2022/09/05 08:39:49;;;;;;;5.97;3.83;;;;;;;23.03;49.62;102445.66;5006801;28;20669;-72
2022/09/05 08:42:39;;;;;;;4.90;3.80;;;;;;;23.47;48.98;102437.50;4994004;28;20219;-75
2022/09/05 08:45:34;;;;;;;5.87;3.90;;;;;;;23.27;49.05;102436.81;4994586;28;20485;-74
2022/09/05 08:48:09;;;;;;;7.73;4.30;;;;;;;23.62;48.30;102443.50;4988954;28;20191;-74
2022/09/05 08:50:47;;;;;;;7.97;4.03;;;;;;;23.95;47.85;102437.13;5005570;28;20278;-75
2022/09/05 08:53:34;;;;;;;4.00;3.47;;;;;;;24.32;47.38;102434.09;5000782;28;20195;-76
2022/09/05 08:56:17;;;;;;;5.87;4.50;;;;;;;24.53;46.70;102431.22;5008133;28;20222;-74
2022/09/05 08:59:06;;;;;;;5.87;4.50;;;;;;;24.65;46.73;102420.63;5004820;28;20228;-74
2022/09/05 09:01:37;;;;;;;6.55;4.13;;;;;;;25.49;45.36;102419.38;4997182;28;20235;-72
2022/09/05 09:04:17;;;;;;;4.40;3.63;;;;;;;25.79;44.53;102418.81;5004815;28;20685;-72
2022/09/05 09:06:58;;;;;;;5.30;4.43;;;;;;;25.74;43.97;102412.78;5004820;28;20242;-72
2022/09/05 09:09:48;;;;;;;5.65;4.30;;;;;;;25.64;45.52;102416.47;5004002;28;20215;-74
2022/09/05 09:12:25;;;;;;;5.45;4.95;;;;;;;25.03;45.65;102423.56;5006970;28;20202;-72
2022/09/05 09:15:12;;;;;;;8.77;4.47;;;;;;;25.33;45.36;102412.63;4988004;28;20194;-72
2022/09/05 09:17:44;;;;;;;6.07;4.60;;;;;;;25.58;44.95;102413.09;5005394;28;20528;-73
2022/09/05 09:20:32;;;;;;;7.07;4.20;;;;;;;25.94;44.33;102412.47;4988374;28;20202;-72
2022/09/05 09:23:03;;;;;;;5.95;4.70;;;;;;;25.69;45.19;102411.16;4970615;28;1078980;-73
2022/09/05 09:25:29;;;;;;;6.95;4.40;;;;;;;26.57;43.21;102405.97;5005700;28;20195;-73
2022/09/05 09:28:09;;;;;;;6.05;4.60;;;;;;;26.50;43.36;102407.81;5006984;28;20202;-72
2022/09/05 09:30:35;;;;;;;5.60;4.90;;;;;;;28.69;39.35;102401.34;4993866;28;20561;-72
2022/09/05 09:33:04;;;;;;;8.00;5.22;;;;;;;30.39;36.36;102390.25;4997315;28;20245;-73
2022/09/05 09:35:49;;;;;;;7.05;4.75;;;;;;;30.47;35.99;102393.47;4973894;28;20775;-73
2022/09/05 09:38:39;;;;;;;5.95;4.32;;;;;;;31.70;34.10;102391.03;5002004;28;20191;-73
2022/09/05 09:41:44;;;;;;;6.07;4.15;;;;;;;32.97;31.47;102384.28;4989001;28;20224;-73
2022/09/05 09:44:28;;;;;;;4.18;3.78;;;;;;;31.13;34.36;102391.69;5007301;28;20187;-74
2022/09/05 09:46:54;;;;;;;4.90;4.38;;;;;;;30.23;36.10;102397.00;5005810;28;20234;-73
2022/09/05 09:49:51;;;;;;;5.63;4.05;;;;;;;28.85;38.08;102394.66;5009135;28;20281;-75
2022/09/05 09:52:29;;;;;;;4.68;4.13;;;;;;;28.70;39.39;102389.88;5008299;28;20222;-72
2022/09/05 09:55:37;;;;;;;4.63;4.13;;;;;;;29.19;38.82;102383.00;4991921;28;20196;-73
2022/09/05 09:58:09;;;;;;;5.63;4.03;;;;;;;28.90;37.85;102401.53;4951411;28;20238;-72
2022/09/05 10:00:50;;;;;;;6.38;4.07;;;;;;;30.78;35.56;102384.28;5004843;28;20484;-72
2022/09/05 10:03:22;;;;;;;8.10;3.67;;;;;;;29.12;37.72;102386.78;5010216;28;20614;-72
2022/09/05 10:06:12;;;;;;;5.00;3.60;;;;;;;28.97;38.25;102392.50;4990485;28;20501;-71
2022/09/05 10:09:23;;;;;;;6.53;4.00;;;;;;;28.59;39.22;102384.91;4990500;28;20202;-71
2022/09/05 10:12:10;;;;;;;4.85;3.55;;;;;;;27.91;40.70;102383.38;5004874;28;20242;-72
2022/09/05 10:15:04;;;;;;;4.30;3.90;;;;;;;27.74;40.96;102384.69;5008077;28;20195;-71
2022/09/05 10:18:00;;;;;;;4.40;3.90;;;;;;;28.57;40.06;102375.31;5005085;28;20219;-73
2022/09/05 10:20:44;;;;;;;3.72;3.30;;;;;;;29.08;38.63;102379.88;4992918;28;20210;-74
2022/09/05 10:23:44;;;;;;;4.50;3.50;;;;;;;28.80;38.94;102370.19;4991499;28;20195;-72
2022/09/05 10:26:47;;;;;;;5.70;3.00;;;;;;;29.04;38.42;102367.69;5009779;28;20193;-72
2022/09/05 10:29:31;;;;;;;3.50;3.05;;;;;;;28.80;39.10;102365.81;5009349;28;20191;-73
2022/09/05 10:32:07;;;;;;;5.95;3.45;;;;;;;29.26;39.13;102360.78;4991045;28;20221;-73
2022/09/05 10:34:57;;;;;;;3.78;2.97;;;;;;;28.67;38.53;102363.56;4993031;28;20186;-73
2022/09/05 10:37:34;;;;;;;4.75;3.00;;;;;;;28.67;38.84;102358.31;5009946;28;20249;-72
2022/09/05 10:40:06;;;;;;;5.85;3.40;;;;;;;28.95;37.69;102351.22;5006308;28;20653;-72
2022/09/05 10:42:46;;;;;;;3.78;2.83;;;;;;;29.16;37.44;102343.50;5008014;28;20211;-76
2022/09/05 10:45:28;;;;;;;3.13;2.80;;;;;;;29.26;37.64;102344.94;5007060;28;20183;-74
2022/09/05 10:48:20;;;;;;;3.35;3.00;;;;;;;29.29;37.45;102349.25;5003855;28;20358;-75
2022/09/05 10:50:59;;;;;;;4.88;3.13;;;;;;;29.26;36.99;102347.59;5008131;28;20199;-72
2022/09/05 10:53:40;;;;;;;6.63;2.88;;;;;;;29.40;37.11;102347.97;5008243;28;20650;-73
2022/09/05 10:56:23;;;;;;;4.47;2.83;;;;;;;29.61;36.46;102352.53;4992383;28;20776;-73
2022/09/05 10:59:02;;;;;;;3.40;2.88;;;;;;;29.65;36.53;102337.44;4969638;28;20235;-73
2022/09/05 11:01:32;;;;;;;3.00;2.45;;;;;;;29.82;36.32;102343.84;4988209;28;20242;-74
2022/09/05 11:04:16;;;;;;;3.47;2.67;;;;;;;30.47;35.40;102329.97;4990097;28;20655;-74
2022/09/05 11:06:45;;;;;;;3.22;2.90;;;;;;;30.22;35.37;102327.41;4987782;28;20218;-73
2022/09/05 11:09:16;;;;;;;3.45;2.70;;;;;;;30.00;34.97;102337.03;4987755;28;20194;-75
2022/09/05 11:11:45;;;;;;;3.75;2.50;;;;;;;30.18;34.82;102331.09;4985854;28;20224;-74
2022/09/05 11:14:49;;;;;;;5.30;2.83;;;;;;;30.43;34.88;102329.22;4990652;28;20245;-73
2022/09/05 11:17:27;;;;;;;6.47;2.47;;;;;;;30.55;34.43;102323.44;4988169;28;20199;-72
2022/09/05 11:20:25;;;;;;;3.38;2.72;;;;;;;31.07;34.55;102330.19;4987637;28;20203;-72
2022/09/05 11:23:02;;;;;;;3.00;2.72;;;;;;;29.64;35.01;102317.22;4985598;28;20717;-73
2022/09/05 11:25:30;;;;;;;4.63;2.78;;;;;;;29.87;34.99;102325.16;4985045;28;20183;-74
2022/09/05 11:28:07;;;;;;;4.45;2.80;;;;;;;30.58;34.97;102320.69;4989516;28;20237;-74
2022/09/05 11:30:39;;;;;;;6.10;2.65;;;;;;;30.36;34.24;102322.44;4986960;28;20642;-74
2022/09/05 11:33:44;;;;;;;4.97;2.95;;;;;;;30.79;34.21;102311.06;4972554;28;20219;-72
2022/09/05 11:36:31;;;;;;;2.97;2.22;;;;;;;30.88;33.50;102323.91;4986970;28;20207;-72
2022/09/05 11:38:59;;;;;;;6.03;2.75;;;;;;;31.15;33.69;102320.09;4986756;28;20270;-73
2022/09/05 11:41:46;;;;;;;3.00;2.80;;;;;;;31.17;33.05;102315.63;4989579;28;20211;-73
2022/09/05 11:44:55;;;;;;;3.83;2.60;;;;;;;31.30;33.69;102306.25;4986452;28;20650;-73
2022/09/05 11:47:26;;;;;;;3.53;2.55;;;;;;;31.25;32.20;102297.66;4920386;29;20194;-72
2022/09/05 11:50:24;;;;;;;7.40;2.65;;;;;;;31.01;32.72;102309.22;4976478;28;20292;-73
2022/09/05 11:53:28;;;;;;;3.03;2.72;;;;;;;30.47;33.26;102314.94;4980007;28;20230;-72
2022/09/05 11:56:29;;;;;;;5.18;2.65;;;;;;;30.79;33.94;102313.72;4987842;28;20215;-72
2022/09/05 11:59:17;;;;;;;5.05;2.40;;;;;;;31.57;33.02;102302.38;4983731;28;20207;-73
2022/09/05 12:01:54;;;;;;;2.45;2.25;;;;;;;31.50;33.63;102303.59;4985298;28;20248;-74
2022/09/05 12:04:43;;;;;;;6.93;2.75;;;;;;;30.76;33.34;102292.66;4989907;28;20595;-72
2022/09/05 12:07:34;;;;;;;2.78;2.58;;;;;;;30.25;34.03;102302.63;4983913;28;20675;-73
2022/09/05 12:10:12;;;;;;;3.33;2.58;;;;;;;29.68;34.84;102301.22;4990520;28;20685;-73
2022/09/05 12:13:16;;;;;;;2.80;2.55;;;;;;;29.79;35.82;102300.84;4975333;28;20202;-73
2022/09/05 12:15:45;;;;;;;5.30;2.90;;;;;;;29.27;36.14;102299.13;5010710;28;20309;-74
2022/09/05 12:18:24;;;;;;;3.03;2.78;;;;;;;29.04;36.39;102314.91;5011228;28;20229;-73
2022/09/05 12:21:04;;;;;;;2.95;2.75;;;;;;;29.57;36.26;102297.22;5007723;28;20195;-73
2022/09/05 12:23:48;;;;;;;3.92;2.67;;;;;;;29.55;36.00;102291.09;5009251;28;20673;-73
2022/09/05 12:26:35;;;;;;;4.22;3.00;;;;;;;30.12;35.00;102294.31;5010655;28;20193;-72
2022/09/05 12:29:09;;;;;;;3.88;2.70;;;;;;;30.74;35.18;102281.28;5009811;28;20197;-72
2022/09/05 12:31:52;;;;;;;4.70;2.63;;;;;;;30.73;33.67;102295.41;5007235;28;20212;-72
2022/09/05 12:34:50;;;;;;;6.13;3.28;;;;;;;29.46;35.93;102288.78;5006127;28;20218;-72